Time;durP1;ratioP1;P1;durP2;ratioP2;P2;SDS_P1;SDS_P2;PMS_P1;PMS_P2;Temp;Humidity;BMP_temperature;BMP_pressure;BME280_temperature;BME280_humidity;BME280_pressure;Samples;Min_cycle;Max_cycle;Signal;HPM_P1;HPM_P2
2021/12/16 00:02:33;;;;;;;44.45;16.75;;;7.70;99.90;;;;;;5052709;28;20049;-68
2021/12/16 00:05:20;;;;;;;53.77;17.87;;;7.60;99.90;;;;;;5034821;28;20195;-68
2021/12/16 00:07:58;;;;;;;57.55;18.35;;;7.80;99.90;;;;;;5038221;28;20140;-69
2021/12/16 00:10:28;;;;;;;60.25;17.90;;;8.00;99.90;;;;;;5052841;28;20413;-68
2021/12/16 00:32:29;;;;;;;45.83;15.95;;;7.90;99.90;;;;;;5052324;28;20071;-68
2021/12/16 00:34:57;;;;;;;44.72;15.65;;;7.80;99.90;;;;;;5052587;28;20493;-70
2021/12/16 00:37:24;;;;;;;59.83;16.88;;;8.10;99.90;;;;;;5052516;28;20041;-68
2021/12/16 00:39:50;;;;;;;50.45;16.70;;;7.80;99.90;;;;;;5052425;28;20094;-72
2021/12/16 00:47:32;;;;;;;43.15;15.05;;;7.70;99.90;;;;;;5034818;28;20095;-68
2021/12/16 00:50:22;;;;;;;47.72;15.05;;;8.30;99.90;;;;;;5052538;28;20049;-68
2021/12/16 00:58:06;;;;;;;56.33;15.35;;;8.00;99.90;;;;;;5052361;28;20099;-69
2021/12/16 01:00:32;;;;;;;52.78;15.48;;;7.90;99.90;;;;;;5051938;28;20562;-68
2021/12/16 01:03:19;;;;;;;69.07;16.63;;;8.10;99.90;;;;;;5052331;28;20044;-69
2021/12/16 01:09:09;;;;;;;39.58;14.18;;;8.30;99.90;;;;;;5052357;28;20056;-68
2021/12/16 01:52:30;;;;;;;36.67;9.88;;;8.50;99.90;;;;;;5055351;28;20049;-68
2021/12/16 01:54:38;;;;;;;42.08;9.40;;;8.40;99.90;;;;;;5046514;28;20057;-68
2021/12/16 01:59:37;;;;;;;31.30;8.57;;;8.30;99.90;;;;;;5055141;28;20470;-68
2021/12/16 02:02:30;;;;;;;40.92;9.65;;;8.50;99.90;;;;;;5055106;28;20041;-68
2021/12/16 02:07:54;;;;;;;28.00;8.77;;;8.40;99.90;;;;;;5038598;28;20052;-70
2021/12/16 02:10:24;;;;;;;31.05;8.73;;;8.50;99.90;;;;;;5054971;28;20056;-69
2021/12/16 02:31:47;;;;;;;28.08;6.55;;;8.20;99.90;;;;;;5054609;28;20508;-70
2021/12/16 02:36:44;;;;;;;24.27;6.75;;;8.00;99.90;;;;;;5054531;28;20147;-69
2021/12/16 02:39:21;;;;;;;22.52;6.85;;;7.90;99.90;;;;;;5054508;28;20049;-68
2021/12/16 02:41:51;;;;;;;32.95;7.20;;;8.10;99.90;;;;;;5054175;28;20045;-70
2021/12/16 02:48:27;;;;;;;27.27;6.70;;;7.90;99.90;;;;;;5054512;28;20048;-70
2021/12/16 02:50:06;;;;;;;32.13;6.78;;;7.50;99.90;;;;;;5053262;28;20056;-69
2021/12/16 02:52:32;;;;;;;27.48;6.65;;;7.40;99.90;;;;;;5054263;28;20049;-71
2021/12/16 02:54:58;;;;;;;34.80;8.02;;;7.60;99.90;;;;;;5054062;28;20049;-69
2021/12/16 02:57:25;;;;;;;35.40;7.20;;;7.40;99.90;;;;;;5053921;28;20091;-69
2021/12/16 02:59:53;;;;;;;30.67;8.05;;;7.50;99.90;;;;;;5054059;28;20052;-69
2021/12/16 03:02:20;;;;;;;30.63;7.38;;;6.90;99.90;;;;;;5054057;28;20053;-69
2021/12/16 03:04:50;;;;;;;39.83;7.47;;;7.10;99.90;;;;;;5053987;28;20053;-69
2021/12/16 03:07:17;;;;;;;34.53;8.05;;;7.20;99.90;;;;;;5054223;28;20105;-69
2021/12/16 03:12:50;;;;;;;37.80;7.82;;;6.90;99.90;;;;;;5053870;28;20053;-69
2021/12/16 03:15:36;;;;;;;38.50;7.90;;;7.10;99.90;;;;;;5053847;28;20084;-69
2021/12/16 03:36:49;;;;;;;28.42;8.70;;;6.70;99.90;;;;;;5053430;28;20405;-69
2021/12/16 03:39:16;;;;;;;40.90;9.40;;;6.70;99.90;;;;;;5053185;28;20049;-69
2021/12/16 03:41:43;;;;;;;30.73;8.57;;;6.50;99.90;;;;;;5053241;28;20071;-71
2021/12/16 03:44:13;;;;;;;43.72;8.90;;;6.70;99.90;;;;;;5053299;28;20135;-69
2021/12/16 03:46:44;;;;;;;45.50;10.18;;;6.50;99.90;;;;;;5053300;28;20497;-69
2021/12/16 03:49:17;;;;;;;28.25;9.85;;;6.60;99.90;;;;;;5053242;28;20057;-69
2021/12/16 03:51:52;;;;;;;33.15;9.70;;;;;;;;;;5053145;28;20404;-69
2021/12/16 03:54:25;;;;;;;43.50;10.27;;;6.60;99.90;;;;;;5052448;28;20065;-70
2021/12/16 03:56:52;;;;;;;45.53;10.35;;;6.50;99.90;;;;;;5053327;28;20049;-69
2021/12/16 03:59:23;;;;;;;42.63;10.00;;;6.60;99.90;;;;;;5053026;28;20088;-69
2021/12/16 04:01:49;;;;;;;36.70;10.00;;;6.40;99.90;;;;;;5052644;28;20041;-69
2021/12/16 04:04:15;;;;;;;30.77;8.63;;;6.50;99.90;;;;;;5052903;28;20049;-69
2021/12/16 04:06:42;;;;;;;47.63;10.43;;;;;;;;;;5052912;28;20094;-69
2021/12/16 04:09:10;;;;;;;42.50;9.07;;;;;;;;;;5052597;28;20060;-71
2021/12/16 04:11:43;;;;;;;45.22;10.00;;;6.60;99.90;;;;;;5052791;28;20045;-68
2021/12/16 04:14:13;;;;;;;37.63;9.70;;;6.20;99.90;;;;;;5052875;28;20049;-69
2021/12/16 04:16:42;;;;;;;41.92;10.90;;;;;;;;;;5052811;28;20114;-69
2021/12/16 04:19:13;;;;;;;43.55;9.52;;;6.50;99.90;;;;;;5052817;28;20044;-70
2021/12/16 04:21:46;;;;;;;43.35;9.80;;;6.30;99.90;;;;;;5052623;28;20052;-69
2021/12/16 04:24:13;;;;;;;47.35;10.43;;;;;;;;;;5052405;28;20041;-69
2021/12/16 04:26:41;;;;;;;39.70;11.02;;;6.30;99.90;;;;;;5052632;28;20509;-69
2021/12/16 04:29:07;;;;;;;38.28;10.52;;;;;;;;;;5035083;28;20106;-70
2021/12/16 04:31:35;;;;;;;49.25;11.88;;;6.30;99.90;;;;;;5052578;28;20049;-70
2021/12/16 04:34:02;;;;;;;46.00;10.77;;;6.20;99.90;;;;;;5052613;28;20102;-69
2021/12/16 04:36:28;;;;;;;50.25;10.73;;;;;;;;;;5052099;28;20044;-69
2021/12/16 04:38:54;;;;;;;43.03;11.23;;;6.10;99.90;;;;;;5034467;28;20132;-69
2021/12/16 04:41:20;;;;;;;55.75;11.73;;;6.00;99.90;;;;;;5052457;28;20049;-69
2021/12/16 04:43:48;;;;;;;59.47;12.30;;;;;;;;;;5052101;28;20500;-69
2021/12/16 04:46:15;;;;;;;62.88;12.38;;;;;;;;;;5034839;28;20064;-69
2021/12/16 04:48:44;;;;;;;63.75;13.13;;;6.40;99.90;;;;;;5052435;28;20386;-69
2021/12/16 04:51:10;;;;;;;125.35;15.45;;;6.30;99.90;;;;;;5034536;28;20045;-69
2021/12/16 04:53:39;;;;;;;398.98;17.40;;;6.10;99.90;;;;;;5051017;28;20453;-69
2021/12/16 04:56:08;;;;;;;23.75;8.02;;;5.90;99.90;;;;;;5052375;28;20056;-69
2021/12/16 04:58:33;;;;;;;80.35;9.07;;;6.50;99.90;;;;;;5052328;28;20049;-70
2021/12/16 05:01:00;;;;;;;142.10;10.77;;;5.90;99.90;;;;;;5052282;28;20049;-70
2021/12/16 05:03:26;;;;;;;226.07;11.15;;;;;;;;;;5052294;28;20374;-69
2021/12/16 05:05:53;;;;;;;250.80;13.98;;;5.90;99.90;;;;;;5052030;28;20045;-69
2021/12/16 05:08:19;;;;;;;436.85;17.92;;;;;;;;;;5052297;28;20437;-69
2021/12/16 05:10:47;;;;;;;250.80;12.63;;;5.70;99.90;;;;;;5034544;28;20049;-69
2021/12/16 05:13:13;;;;;;;406.25;16.90;;;;;;;;;;5053718;28;20053;-69
2021/12/16 05:15:41;;;;;;;148.60;10.50;;;5.50;99.90;;;;;;5056042;28;20056;-69
2021/12/16 05:18:10;;;;;;;137.77;9.70;;;5.40;99.90;;;;;;5055997;28;20128;-69
2021/12/16 05:20:42;;;;;;;250.05;16.55;;;5.70;99.90;;;;;;5055571;28;20493;-69
2021/12/16 05:28:24;;;;;;;35.40;10.02;;;5.70;99.90;;;;;;5055789;28;20084;-69
2021/12/16 05:30:50;;;;;;;30.13;9.35;;;;;;;;;;5055809;28;20059;-69
2021/12/16 05:33:17;;;;;;;;;;;5.70;99.90;;;;;;5056235;28;20103;-69
2021/12/16 05:35:43;;;;;;;39.27;10.27;;;5.70;99.90;;;;;;5055098;28;20285;-68
2021/12/16 05:38:09;;;;;;;;;;;5.60;99.90;;;;;;5055757;28;20493;-69
2021/12/16 05:40:35;;;;;;;76.82;12.93;;;;;;;;;;5055492;28;19972;-69
2021/12/16 05:43:04;;;;;;;41.08;11.30;;;;;;;;;;5055581;28;20098;-69
2021/12/16 05:45:30;;;;;;;24.52;10.70;;;;;;;;;;5055524;28;20056;-68
2021/12/16 05:47:58;;;;;;;72.00;12.40;;;;;;;;;;5055415;28;20132;-69
2021/12/16 05:50:25;;;;;;;40.47;10.25;;;;;;;;;;5055082;28;20045;-73
2021/12/16 05:52:51;;;;;;;42.75;8.98;;;;;;;;;;5055060;28;20482;-69
2021/12/16 05:55:18;;;;;;;205.25;11.70;;;5.70;99.90;;;;;;5037294;28;20096;-69
2021/12/16 05:57:45;;;;;;;271.58;13.77;;;;;;;;;;5054955;28;20505;-71
2021/12/16 06:00:17;;;;;;;;;;;5.30;99.90;;;;;;5037705;28;20440;-69
2021/12/16 06:02:43;;;;;;;206.73;14.13;;;;;;;;;;5037636;28;19974;-68
2021/12/16 06:05:09;;;;;;;371.27;19.58;;;5.30;99.90;;;;;;5054911;28;20087;-69
2021/12/16 06:07:36;;;;;;;107.82;11.52;;;;;;;;;;5055109;28;20045;-69
2021/12/16 06:10:03;;;;;;;91.60;10.13;;;5.60;99.90;;;;;;5055058;28;20044;-69
2021/12/16 06:12:29;;;;;;;137.75;13.93;;;5.30;99.90;;;;;;5055035;28;20053;-71
2021/12/16 06:28:22;;;;;;;75.75;12.43;;;5.50;99.90;;;;;;5054828;28;20405;-69
2021/12/16 06:30:48;;;;;;;49.05;11.13;;;;;;;;;;5054690;28;20120;-69
2021/12/16 06:33:17;;;;;;;61.45;11.73;;;5.50;99.90;;;;;;5054389;28;20131;-69
2021/12/16 06:35:44;;;;;;;117.13;15.05;;;;;;;;;;5036821;28;20055;-68
2021/12/16 06:38:09;;;;;;;;;;;5.30;99.90;;;;;;5036906;28;20531;-72
2021/12/16 06:40:35;;;;;;;110.93;15.23;;;5.60;99.90;;;;;;5036813;28;19920;-69
2021/12/16 06:43:03;;;;;;;148.52;16.10;;;;;;;;;;5054532;28;20098;-69
2021/12/16 06:45:33;;;;;;;240.30;19.42;;;5.30;99.90;;;;;;5054444;28;20056;-69
2021/12/16 06:48:08;;;;;;;385.52;23.08;;;;;;;;;;5054182;28;20045;-69
2021/12/16 06:53:13;;;;;;;109.35;14.48;;;5.40;99.90;;;;;;5054111;28;20433;-69
2021/12/16 06:58:39;;;;;;;244.00;17.65;;;5.40;99.90;;;;;;5054204;28;20063;-69
2021/12/16 07:01:13;;;;;;;98.03;13.73;;;5.20;99.90;;;;;;5054104;28;20051;-69
2021/12/16 07:03:49;;;;;;;55.10;11.80;;;;;;;;;;5053866;28;20179;-69
2021/12/16 07:06:25;;;;;;;169.60;16.90;;;;;;;;;;5054105;28;20056;-72
2021/12/16 07:08:56;;;;;;;197.55;19.45;;;5.50;99.90;;;;;;5054019;28;20092;-69
2021/12/16 07:11:22;;;;;;;91.50;13.65;;;;;;;;;;5036055;28;20055;-69
2021/12/16 07:13:57;;;;;;;;;;;;;;;;;;5054039;28;20444;-69
2021/12/16 07:16:24;;;;;;;103.55;13.15;;;5.50;99.90;;;;;;5053568;28;20293;-69
2021/12/16 07:18:51;;;;;;;150.40;14.38;;;;;;;;;;5035828;28;20041;-69
2021/12/16 07:21:16;;;;;;;;;;;5.50;99.90;;;;;;5054097;28;20049;-69
2021/12/16 07:23:42;;;;;;;181.25;18.35;;;;;;;;;;5053632;28;19975;-69
2021/12/16 07:26:09;;;;;;;112.35;15.48;;;;;;;;;;5053631;28;20044;-69
2021/12/16 07:28:35;;;;;;;60.85;11.27;;;;;;;;;;5053614;28;20075;-69
2021/12/16 07:31:01;;;;;;;36.63;10.13;;;;;;;;;;5053215;28;20076;-69
2021/12/16 07:33:27;;;;;;;68.50;11.20;;;;;;;;;;5053468;28;20056;-69
2021/12/16 07:35:55;;;;;;;51.25;11.95;;;5.30;99.90;;;;;;5035288;28;20091;-69
2021/12/16 07:38:21;;;;;;;373.05;16.88;;;;;;;;;;5053411;28;20127;-69
2021/12/16 07:40:50;;;;;;;326.45;15.70;;;5.30;99.90;;;;;;5035497;28;20040;-69
2021/12/16 07:43:26;;;;;;;287.30;14.10;;;;;;;;;;5035413;28;20477;-69
2021/12/16 07:45:55;;;;;;;323.23;18.75;;;5.50;99.90;;;;;;5052982;28;20053;-69
2021/12/16 07:48:21;;;;;;;444.23;21.77;;;;;;;;;;5052916;28;20555;-72
2021/12/16 07:50:50;;;;;;;57.00;9.57;;;;;;;;;;5053126;28;20041;-69
2021/12/16 07:53:16;;;;;;;166.27;12.10;;;;;;;;;;5052900;28;20113;-69
2021/12/16 07:55:43;;;;;;;310.65;16.05;;;;;;;;;;5035329;28;20056;-69
2021/12/16 07:58:09;;;;;;;144.02;12.15;;;;;;;;;;5053071;28;20488;-69
2021/12/16 08:00:37;;;;;;;266.98;14.48;;;5.20;99.90;;;;;;5052700;28;20041;-69
2021/12/16 08:03:07;;;;;;;269.58;15.82;;;7.10;99.90;;;;;;5035152;28;20041;-69
2021/12/16 08:05:37;;;;;;;315.40;17.05;;;5.40;99.90;;;;;;5053012;28;20044;-69
2021/12/16 08:08:04;;;;;;;209.35;15.90;;;5.30;99.90;;;;;;5052878;28;20131;-69
2021/12/16 08:10:30;;;;;;;84.90;14.45;;;5.70;99.90;;;;;;5052925;28;20059;-68
2021/12/16 08:12:56;;;;;;;228.07;22.02;;;5.70;99.90;;;;;;5052856;28;20041;-70
2021/12/16 08:15:22;;;;;;;196.15;23.08;;;5.30;99.90;;;;;;5034780;28;20044;-69
2021/12/16 08:17:48;;;;;;;80.57;16.67;;;5.60;99.90;;;;;;5052783;28;20045;-69
2021/12/16 08:20:18;;;;;;;;;;;5.50;99.90;;;;;;5052819;28;20033;-68
2021/12/16 08:22:49;;;;;;;87.85;16.42;;;5.40;99.90;;;;;;5052424;28;19920;-69
2021/12/16 08:25:18;;;;;;;75.40;16.00;;;5.60;99.90;;;;;;5052780;28;20055;-68
2021/12/16 08:27:44;;;;;;;56.72;15.70;;;;;;;;;;5052648;28;20053;-69
2021/12/16 08:30:12;;;;;;;57.63;14.90;;;;;;;;;;5034733;28;20509;-69
2021/12/16 08:32:38;;;;;;;54.10;16.90;;;;;;;;;;5052310;28;20523;-69
2021/12/16 08:35:06;;;;;;;149.20;19.95;;;5.80;99.90;;;;;;5052632;28;20083;-69
2021/12/16 08:37:31;;;;;;;203.25;22.05;;;5.80;99.90;;;;;;5052542;28;20044;-69
2021/12/16 08:39:58;;;;;;;231.77;25.10;;;5.80;99.90;;;;;;5052745;28;20051;-68
2021/12/16 08:42:23;;;;;;;226.10;25.83;;;5.70;99.90;;;;;;5051967;28;20450;-68
2021/12/16 08:44:49;;;;;;;95.78;17.75;;;6.30;99.90;;;;;;5051946;28;20061;-69
2021/12/16 08:47:18;;;;;;;54.05;15.20;;;6.00;99.90;;;;;;5018167;28;20106;-69
2021/12/16 08:49:47;;;;;;;54.70;16.25;;;5.80;99.90;;;;;;5053884;28;20559;-68
2021/12/16 08:52:19;;;;;;;77.35;16.83;;;5.80;99.90;;;;;;5035240;28;20103;-69
2021/12/16 08:54:46;;;;;;;88.25;17.70;;;6.00;99.90;;;;;;5055649;28;20089;-69
2021/12/16 08:57:12;;;;;;;66.80;15.20;;;6.40;99.90;;;;;;5054641;28;20135;-70
2021/12/16 08:59:39;;;;;;;63.65;15.07;;;6.10;99.90;;;;;;5054779;28;20505;-69
2021/12/16 09:02:07;;;;;;;74.95;15.52;;;;;;;;;;5055381;28;20389;-69
2021/12/16 09:04:34;;;;;;;129.90;16.83;;;6.00;99.90;;;;;;5054971;28;20459;-69
2021/12/16 09:07:02;;;;;;;106.93;18.15;;;;;;;;;;5050515;28;20109;-69
2021/12/16 09:09:32;;;;;;;113.65;18.60;;;;;;;;;;5055143;28;20591;-69
2021/12/16 09:12:09;;;;;;;110.93;20.05;;;6.10;99.90;;;;;;5055678;28;20084;-69
2021/12/16 09:14:38;;;;;;;138.80;21.27;;;6.10;99.90;;;;;;5056061;28;20083;-71
2021/12/16 09:17:09;;;;;;;109.70;20.63;;;6.10;99.90;;;;;;5038464;28;20142;-69
2021/12/16 09:19:37;;;;;;;74.95;21.10;;;6.10;99.90;;;;;;5038483;28;20049;-69
2021/12/16 09:22:03;;;;;;;96.90;20.75;;;6.20;99.90;;;;;;5055871;28;20041;-70
2021/12/16 09:24:29;;;;;;;112.53;22.10;;;;;;;;;;5038128;28;20428;-69
2021/12/16 09:26:55;;;;;;;132.43;24.05;;;;;;;;;;5055322;28;20549;-69
2021/12/16 09:29:21;;;;;;;326.20;33.25;;;6.50;99.90;;;;;;5055853;28;20044;-69
2021/12/16 09:31:47;;;;;;;332.02;31.50;;;;;;;;;;5055800;28;20091;-70
2021/12/16 09:34:13;;;;;;;;;;;6.40;99.90;;;;;;5056138;28;20053;-70
2021/12/16 09:36:42;;;;;;;303.73;24.75;;;6.60;99.90;;;;;;5055713;28;19925;-70
2021/12/16 09:39:12;;;;;;;552.55;38.95;;;6.90;99.90;;;;;;5055635;28;20045;-69
2021/12/16 09:41:40;;;;;;;420.90;32.95;;;6.80;99.90;;;;;;5054997;28;20477;-69
2021/12/16 09:44:07;;;;;;;359.67;28.63;;;6.90;99.90;;;;;;5055561;28;20033;-69
2021/12/16 09:46:33;;;;;;;523.17;40.10;;;6.90;99.90;;;;;;5055596;28;20048;-69
2021/12/16 09:48:59;;;;;;;373.67;30.27;;;7.00;99.90;;;;;;5037557;28;20521;-69
2021/12/16 09:51:28;;;;;;;369.52;28.55;;;7.00;99.90;;;;;;5055172;28;20486;-69
2021/12/16 09:53:58;;;;;;;347.15;26.13;;;7.20;99.90;;;;;;5054896;28;20498;-69
2021/12/16 09:56:26;;;;;;;287.88;24.63;;;7.30;99.90;;;;;;5054836;28;20516;-69
2021/12/16 09:58:53;;;;;;;326.35;26.70;;;7.50;99.90;;;;;;5054710;28;20132;-70
2021/12/16 10:01:19;;;;;;;;;;;7.20;99.90;;;;;;5037673;28;20045;-69
2021/12/16 10:03:50;;;;;;;225.43;21.50;;;7.40;99.90;;;;;;5054923;28;20396;-69
2021/12/16 10:06:17;;;;;;;345.98;26.83;;;7.30;99.90;;;;;;5055244;28;20114;-68
2021/12/16 10:08:43;;;;;;;220.70;22.40;;;7.30;99.90;;;;;;5055111;28;20049;-69
2021/12/16 10:11:10;;;;;;;211.77;20.85;;;;;;;;;;5054830;28;20048;-69
2021/12/16 10:19:06;;;;;;;185.18;19.63;;;7.10;99.90;;;;;;5055035;28;20083;-69
2021/12/16 10:21:32;;;;;;;203.43;21.67;;;7.30;99.90;;;;;;5054683;28;20048;-69
2021/12/16 10:23:58;;;;;;;181.75;18.08;;;7.50;99.90;;;;;;5054896;28;20044;-70
2021/12/16 10:26:25;;;;;;;240.50;21.20;;;7.40;99.90;;;;;;5036960;28;20363;-69
2021/12/16 10:28:57;;;;;;;305.08;22.02;;;7.50;99.90;;;;;;5054684;28;20048;-69
2021/12/16 10:31:27;;;;;;;279.42;20.67;;;;;;;;;;5054716;28;20045;-70
2021/12/16 10:34:02;;;;;;;291.20;22.08;;;7.70;99.90;;;;;;5054637;28;20051;-70
2021/12/16 10:36:28;;;;;;;329.80;23.63;;;7.60;99.90;;;;;;5054600;28;20041;-70
2021/12/16 10:39:14;;;;;;;253.70;20.55;;;7.90;99.90;;;;;;5054636;28;20075;-69
2021/12/16 10:41:44;;;;;;;200.43;19.50;;;7.70;99.90;;;;;;5054454;28;20052;-69
2021/12/16 10:44:14;;;;;;;413.98;30.15;;;7.70;99.90;;;;;;5054180;28;20456;-69
2021/12/16 10:46:48;;;;;;;288.20;25.50;;;;;;;;;;5036597;28;20059;-69
2021/12/16 10:49:25;;;;;;;346.17;25.63;;;8.00;99.90;;;;;;5054417;28;20056;-70
2021/12/16 10:52:16;;;;;;;221.30;20.17;;;7.90;99.90;;;;;;5054410;28;20374;-69
2021/12/16 10:54:45;;;;;;;221.35;21.23;;;8.00;99.90;;;;;;5053292;28;20102;-69
2021/12/16 10:57:12;;;;;;;367.50;27.80;;;7.80;99.90;;;;;;5054138;28;20049;-69
2021/12/16 10:59:44;;;;;;;363.30;28.80;;;8.00;99.90;;;;;;5054240;28;20056;-70
2021/12/16 11:02:24;;;;;;;222.68;21.98;;;8.00;99.90;;;;;;5054099;28;20408;-70
2021/12/16 11:04:59;;;;;;;303.55;26.52;;;7.90;99.90;;;;;;5054134;28;20048;-69
2021/12/16 11:07:31;;;;;;;216.93;25.05;;;8.10;99.90;;;;;;5054045;28;20048;-69
2021/12/16 11:10:21;;;;;;;219.20;21.48;;;8.30;99.90;;;;;;5053220;28;20501;-69
2021/12/16 11:13:02;;;;;;;222.10;22.85;;;7.90;99.90;;;;;;5053694;28;20481;-69
2021/12/16 11:15:32;;;;;;;204.00;22.70;;;8.00;99.90;;;;;;5053918;28;20052;-72
2021/12/16 11:18:07;;;;;;;278.52;25.40;;;8.10;99.90;;;;;;5053853;28;20124;-71
2021/12/16 11:21:06;;;;;;;244.07;25.42;;;8.00;99.90;;;;;;5036069;28;20053;-71
2021/12/16 11:23:38;;;;;;;294.13;28.17;;;8.10;99.90;;;;;;5053395;28;20052;-69
2021/12/16 11:26:11;;;;;;;251.70;22.92;;;8.30;99.90;;;;;;5035907;28;20489;-70
2021/12/16 11:28:38;;;;;;;353.25;28.55;;;8.10;99.90;;;;;;5053692;28;20049;-69
2021/12/16 11:31:18;;;;;;;344.98;29.17;;;7.90;99.90;;;;;;5035905;28;20511;-70
2021/12/16 11:33:51;;;;;;;261.95;24.45;;;8.40;99.90;;;;;;5035677;28;20044;-69
2021/12/16 11:36:35;;;;;;;331.75;29.20;;;8.50;99.90;;;;;;5053535;28;20049;-69
2021/12/16 11:39:10;;;;;;;296.80;22.75;;;;;;;;;;5053152;28;20109;-69
2021/12/16 11:41:44;;;;;;;308.55;27.98;;;8.50;99.90;;;;;;5053361;28;20045;-70
2021/12/16 11:44:18;;;;;;;304.33;29.13;;;8.30;99.90;;;;;;5053252;28;20580;-70
2021/12/16 11:46:51;;;;;;;230.93;23.63;;;8.40;99.90;;;;;;5053329;28;20052;-69
2021/12/16 11:49:31;;;;;;;257.23;25.50;;;8.30;99.90;;;;;;5053228;28;20096;-69
2021/12/16 11:51:57;;;;;;;261.02;28.30;;;8.60;99.90;;;;;;5052964;28;20390;-69
2021/12/16 11:54:38;;;;;;;190.15;25.33;;;8.70;99.90;;;;;;5053078;28;20086;-69
2021/12/16 11:57:25;;;;;;;215.80;24.65;;;8.90;99.90;;;;;;5053226;28;20056;-70
2021/12/16 12:00:05;;;;;;;143.18;21.90;;;8.90;99.90;;;;;;5052942;28;20048;-69
2021/12/16 12:02:38;;;;;;;198.82;24.48;;;8.60;99.90;;;;;;5053036;28;20089;-69
2021/12/16 12:05:22;;;;;;;162.15;21.70;;;8.70;99.90;;;;;;5035357;28;20056;-70
2021/12/16 12:07:57;;;;;;;184.65;24.15;;;8.80;99.90;;;;;;5052692;28;20059;-69
2021/12/16 12:10:35;;;;;;;194.35;23.90;;;8.40;99.90;;;;;;5052854;28;20053;-69
2021/12/16 12:13:06;;;;;;;167.15;21.77;;;8.90;99.90;;;;;;5052788;28;20124;-69
2021/12/16 12:15:51;;;;;;;175.60;24.13;;;8.70;99.90;;;;;;5052855;28;20088;-69
2021/12/16 12:18:43;;;;;;;122.57;19.63;;;9.00;99.90;;;;;;5047971;28;20051;-69
2021/12/16 12:21:18;;;;;;;155.00;22.40;;;8.40;99.90;;;;;;5050777;28;20635;-71
2021/12/16 12:23:44;;;;;;;123.93;22.52;;;9.00;99.90;;;;;;5051545;28;20049;-70
2021/12/16 12:26:16;;;;;;;129.05;22.90;;;8.70;99.90;;;;;;5050499;28;20536;-70
2021/12/16 12:28:44;;;;;;;115.57;22.05;;;8.70;99.90;;;;;;5054594;28;20071;-70
2021/12/16 12:31:10;;;;;;;96.15;22.23;;;8.70;99.90;;;;;;5034036;28;20056;-70
2021/12/16 12:33:36;;;;;;;110.68;23.20;;;10.00;99.90;;;;;;5033276;28;20462;-74
2021/12/16 12:36:03;;;;;;;93.30;22.08;;;9.20;99.90;;;;;;5051500;28;20127;-69
2021/12/16 12:38:29;;;;;;;97.43;22.05;;;8.90;99.90;;;;;;5050466;28;20536;-73
2021/12/16 12:40:55;;;;;;;95.20;22.65;;;10.20;99.90;;;;;;5051119;28;20070;-70
2021/12/16 12:43:22;;;;;;;80.03;20.75;;;9.10;99.90;;;;;;5051491;28;20175;-69
2021/12/16 12:45:49;;;;;;;107.93;23.25;;;9.10;99.90;;;;;;5029742;28;20080;-70
2021/12/16 12:48:16;;;;;;;;;;;9.70;99.90;;;;;;5050355;28;20045;-72
2021/12/16 12:50:45;;;;;;;93.55;22.17;;;9.10;99.90;;;;;;5050661;28;19920;-69
2021/12/16 12:53:18;;;;;;;102.22;23.55;;;9.20;99.90;;;;;;5052433;28;20087;-69
2021/12/16 12:55:46;;;;;;;102.32;22.83;;;9.20;99.90;;;;;;5052590;28;20163;-70
2021/12/16 12:58:18;;;;;;;101.82;23.30;;;9.30;99.90;;;;;;5034775;28;20393;-70
2021/12/16 13:01:00;;;;;;;118.80;25.17;;;9.10;99.90;;;;;;5034512;28;20049;-72
2021/12/16 13:03:38;;;;;;;104.90;24.35;;;9.60;99.90;;;;;;5051133;28;20052;-69
2021/12/16 13:06:12;;;;;;;109.90;23.98;;;9.20;99.90;;;;;;5052098;28;20040;-69
2021/12/16 13:08:46;;;;;;;102.32;24.25;;;9.00;99.90;;;;;;5052331;28;20055;-69
2021/12/16 13:11:15;;;;;;;119.22;24.77;;;9.50;99.90;;;;;;5052365;28;20037;-70
2021/12/16 13:14:16;;;;;;;98.45;24.67;;;9.30;99.90;;;;;;5052223;28;20126;-70
2021/12/16 13:28:07;;;;;;;105.70;24.70;;;9.70;99.90;;;;;;5052180;28;20106;-70
2021/12/16 13:30:50;;;;;;;112.32;25.67;;;9.40;99.90;;;;;;5052100;28;20076;-70
2021/12/16 13:33:23;;;;;;;92.63;24.98;;;9.00;99.90;;;;;;5034064;28;20462;-70
2021/12/16 13:36:05;;;;;;;108.63;25.33;;;10.40;99.90;;;;;;5055812;28;20049;-70
2021/12/16 13:38:48;;;;;;;105.88;25.25;;;9.60;99.90;;;;;;5055494;28;20493;-70
2021/12/16 13:41:20;;;;;;;98.05;24.08;;;9.40;99.90;;;;;;5050529;28;20045;-70
2021/12/16 13:44:16;;;;;;;87.60;24.30;;;9.40;99.90;;;;;;5055619;28;20048;-70
2021/12/16 13:47:30;;;;;;;88.75;23.17;;;9.30;99.90;;;;;;5034665;28;20132;-70
2021/12/16 14:02:05;;;;;;;90.28;20.35;;;9.30;99.90;;;;;;5052187;28;20591;-68
2021/12/16 14:07:27;;;;;;;122.95;23.55;;;9.10;99.90;;;;;;5054701;28;20132;-67
2021/12/16 14:10:18;;;;;;;152.27;23.52;;;9.70;99.90;;;;;;5059355;28;20049;-67
2021/12/16 14:25:20;;;;;;;143.52;24.20;;;9.70;99.90;;;;;;5054614;28;20153;-66
2021/12/16 14:34:49;;;;;;;102.78;20.80;;;9.10;99.90;;;;;;5054449;28;20429;-66
2021/12/16 14:50:17;;;;;;;202.57;28.13;;;9.70;99.90;;;;;;5054114;28;20048;-66
2021/12/16 14:52:42;;;;;;;224.30;27.17;;;9.70;99.90;;;;;;5053611;28;20045;-66
2021/12/16 14:55:12;;;;;;;171.00;26.33;;;9.20;99.90;;;;;;5054010;28;20446;-69
2021/12/16 14:57:41;;;;;;;166.82;26.90;;;9.20;99.90;;;;;;5054000;28;20053;-71
2021/12/16 15:00:18;;;;;;;239.88;29.60;;;9.20;99.90;;;;;;5053553;28;20161;-69
2021/12/16 15:02:47;;;;;;;234.23;26.77;;;9.30;99.90;;;;;;5053551;28;20045;-69
2021/12/16 15:05:27;;;;;;;175.02;26.85;;;9.20;99.90;;;;;;5053416;28;20049;-69
2021/12/16 15:07:55;;;;;;;177.23;21.40;;;9.00;99.90;;;;;;5053139;28;20400;-69
2021/12/16 15:10:22;;;;;;;193.55;21.60;;;9.10;99.90;;;;;;5051169;28;20046;-76
2021/12/16 15:12:59;;;;;;;155.02;19.42;;;9.10;99.90;;;;;;5059079;28;20493;-69
2021/12/16 15:15:34;;;;;;;180.18;21.27;;;9.60;99.90;;;;;;5052510;28;20045;-69
2021/12/16 15:43:06;;;;;;;61.08;14.27;;;8.70;99.90;;;;;;5043864;28;20563;-69
2021/12/16 15:45:41;;;;;;;63.80;16.00;;;8.90;99.90;;;;;;5052729;28;20049;-69
2021/12/16 15:48:13;;;;;;;62.70;15.77;;;9.10;99.90;;;;;;5053185;28;20044;-69
2021/12/16 15:50:45;;;;;;;58.75;14.50;;;8.80;99.90;;;;;;5053116;28;20045;-69
2021/12/16 15:53:39;;;;;;;52.50;14.73;;;9.00;99.90;;;;;;5052973;28;20084;-69
2021/12/16 15:56:15;;;;;;;64.28;16.10;;;8.80;99.90;;;;;;5052202;28;20496;-69
2021/12/16 15:58:49;;;;;;;48.85;14.50;;;9.10;99.90;;;;;;5052681;28;20044;-68
2021/12/16 16:01:29;;;;;;;59.08;17.55;;;8.80;99.90;;;;;;5052799;28;20123;-69
2021/12/16 16:03:55;;;;;;;55.83;17.30;;;9.10;99.90;;;;;;5052334;28;20493;-68
2021/12/16 16:06:22;;;;;;;57.42;16.85;;;9.10;99.90;;;;;;5052728;28;20127;-69
2021/12/16 16:08:49;;;;;;;;;;;8.90;99.90;;;;;;5053155;28;20551;-69
2021/12/16 16:11:19;;;;;;;78.65;18.85;;;8.70;99.90;;;;;;5035152;28;20407;-69
2021/12/16 16:13:50;;;;;;;79.90;19.45;;;8.80;99.90;;;;;;5052335;28;20107;-69
2021/12/16 16:16:19;;;;;;;75.93;19.60;;;8.90;99.90;;;;;;5034879;28;20047;-69
2021/12/16 16:18:56;;;;;;;96.80;20.45;;;8.80;99.90;;;;;;5052151;28;20139;-69
2021/12/16 16:21:25;;;;;;;;;;;9.00;99.90;;;;;;5052086;28;20049;-69
2021/12/16 16:23:59;;;;;;;126.85;21.75;;;8.80;99.90;;;;;;5052721;28;20019;-69
2021/12/16 16:26:27;;;;;;;113.43;19.42;;;8.70;99.90;;;;;;5052841;28;20051;-69
2021/12/16 16:28:58;;;;;;;174.38;22.15;;;8.80;99.90;;;;;;5052434;28;20057;-70
2021/12/16 16:31:26;;;;;;;214.82;22.73;;;9.00;99.90;;;;;;5034976;28;20041;-69
2021/12/16 16:33:52;;;;;;;219.35;23.27;;;10.00;99.90;;;;;;5051863;28;20055;-81
2021/12/16 16:36:22;;;;;;;279.30;24.40;;;10.20;99.90;;;;;;5048792;28;20131;-71
2021/12/16 16:39:16;;;;;;;252.23;25.08;;;8.70;99.90;;;;;;5051813;28;20041;-69
2021/12/16 16:41:48;;;;;;;308.17;26.95;;;8.60;99.90;;;;;;5048470;28;20057;-72
2021/12/16 16:44:16;;;;;;;281.60;27.15;;;8.70;99.90;;;;;;5052626;28;20097;-69
2021/12/16 16:46:56;;;;;;;262.27;24.95;;;8.70;99.90;;;;;;5052551;28;20102;-69
2021/12/16 16:49:30;;;;;;;292.42;24.65;;;8.70;99.90;;;;;;5035644;28;20049;-69
2021/12/16 16:52:03;;;;;;;252.77;22.45;;;8.50;99.90;;;;;;5052492;28;20048;-68
2021/12/16 16:54:37;;;;;;;412.52;29.27;;;8.70;99.90;;;;;;5052308;28;20057;-68
2021/12/16 16:57:19;;;;;;;458.08;31.88;;;8.70;99.90;;;;;;5051857;28;20564;-69
2021/12/16 16:59:51;;;;;;;466.00;29.23;;;8.70;99.90;;;;;;5052474;28;20041;-68
2021/12/16 17:02:25;;;;;;;403.17;30.55;;;8.60;99.90;;;;;;5052378;28;20083;-68
2021/12/16 17:05:02;;;;;;;468.80;33.33;;;8.60;99.90;;;;;;5052384;28;20045;-68
2021/12/16 17:07:48;;;;;;;464.67;29.83;;;8.60;99.90;;;;;;5034386;28;20045;-68
2021/12/16 17:10:25;;;;;;;285.05;23.20;;;8.80;99.90;;;;;;5055487;28;20179;-68
2021/12/16 17:13:15;;;;;;;247.82;22.75;;;8.30;99.90;;;;;;5055655;28;20049;-72